Airfield :
LOGIN :

Register | Disclaimer

   EN    FR    IT 

 










Legend :    VFR   Marginal VFR   IFR   Intensive IFR   Very Intensive IFR
Visi :
Ceiling :
>= 8 km
>= 3000ft
5 to 8 km
1000 to 3000 ft
1500m to 5 km
500 to 1000 ft
800 to 1500m
200 to 500 ft
< 800m
< 200 ft
Symbols :   Thunderstorms  Fog  Heavy snow  Heavy precipitations  Wind > 20 kt
SIGMETs :     Misc.  Thunderstorms  Icing  Turbulence  Mountain Waves  Volcanic Ashes







- Airport Elevation : 383 ft
- IATA code : UDJ


UKLU - Uzhhorod

CURRENT METAR :
  • 200930Z 00000MPS 9999 NSC 26/18 Q1013 R10/090070 NOSIG

EXPIRED METARs :
  • 200900Z 31002MPS 260V340 9999 NSC 26/18 Q1013 R10/090070 NOSIG
  • 200830Z VRB01MPS 9999 NSC 25/18 Q1013 R10/090070 NOSIG
  • 200800Z VRB01MPS 9999 NSC 25/18 Q1013 R10/090070 NOSIG
  • 200730Z VRB01MPS 9999 NSC 24/19 Q1013 R10/090070 NOSIG

TAF TAF UKLU
Valid from the 20 at 09:00 until the 20 at 18:00 UTC


200801Z 2009/2018 VRB01MPS 9999 SCT040 TX30/2013Z TN26/2009Z
TEMPO 2010/2016 VRB07G12MPS -TSRA SCT030CB
No reported NOTAMs for that airfield.
1 SIGMET reported for the L'VIV FIR (UKLV) :
 
Embedded thunderstorms and hail
UKLV SIGMET 1 VALID 200900/201100 UKLW
UKLV LVIV FIR/UIR EMBD TSGR OBS N OF N4930 TOP FL420 MOV NE 20KMH INTSF=



MET'MAP, your aeronautical weather chart ! - Copyright ORBIFLY December 2007 - Disclaimer

ORBIFLY MET'MAP TEAM :

Programming & Development : Alexandra Zaïnal
Concept & Development : Baudouin d'Aumeries
Co-Development & Prog : Marc-Olivier Méhu
Technical & hardware support : Manuel Goepfert

Contact : metmap@orbifly.com




SOURCES & CREDITS :

   NOAA